Time;durP1;ratioP1;P1;durP2;ratioP2;P2;SDS_P1;SDS_P2;PMS_P1;PMS_P2;Temp;Humidity;BMP_temperature;BMP_pressure;BME280_temperature;BME280_humidity;BME280_pressure;Samples;Min_cycle;Max_cycle;Signal;HPM_P1;HPM_P2
2023/09/19 00:01:33;;;;;;;8.77;3.03;;;16.20;61.80;;;;;;5033275;28;20454;-76
2023/09/19 00:03:59;;;;;;;13.35;3.72;;;16.20;63.10;;;;;;5033414;28;20421;-75
2023/09/19 00:06:25;;;;;;;17.08;3.88;;;16.20;62.40;;;;;;5033649;28;20391;-76
2023/09/19 00:08:51;;;;;;;12.75;3.10;;;16.20;61.10;;;;;;5033385;28;20430;-77
2023/09/19 00:11:17;;;;;;;14.13;3.00;;;16.10;61.30;;;;;;5032971;28;20453;-76
2023/09/19 00:13:43;;;;;;;16.77;3.57;;;16.10;61.70;;;;;;5016660;28;20892;-77
2023/09/19 00:16:14;;;;;;;15.60;3.20;;;16.10;61.90;;;;;;5033550;28;20383;-78
2023/09/19 00:18:40;;;;;;;13.07;3.78;;;16.10;62.60;;;;;;5037166;28;20379;-77
2023/09/19 00:21:06;;;;;;;16.30;3.40;;;16.10;62.10;;;;;;5035454;28;20935;-77
2023/09/19 00:23:32;;;;;;;12.85;3.15;;;16.10;62.80;;;;;;5035711;28;20451;-75
2023/09/19 00:25:59;;;;;;;9.15;3.20;;;16.00;63.10;;;;;;5036556;28;20395;-76
2023/09/19 00:28:25;;;;;;;13.15;3.47;;;16.10;62.50;;;;;;5034576;28;20935;-76
2023/09/19 00:30:51;;;;;;;8.15;2.90;;;16.00;62.50;;;;;;5032659;28;20406;-77
2023/09/19 00:33:18;;;;;;;13.77;3.70;;;16.00;63.20;;;;;;5033023;28;21069;-77
2023/09/19 00:35:51;;;;;;;13.77;3.63;;;16.00;62.30;;;;;;5036650;28;20390;-77
2023/09/19 00:38:21;;;;;;;14.07;3.42;;;16.00;61.70;;;;;;5036104;28;20379;-76
2023/09/19 00:40:47;;;;;;;10.25;3.45;;;16.00;62.20;;;;;;5015629;28;20391;-77
2023/09/19 00:43:13;;;;;;;16.83;3.85;;;16.00;60.80;;;;;;5032692;28;21009;-76
2023/09/19 00:45:43;;;;;;;15.85;3.70;;;16.00;60.90;;;;;;5032812;28;20422;-77
2023/09/19 00:48:10;;;;;;;12.43;3.60;;;16.10;59.90;;;;;;5032757;28;20481;-76
2023/09/19 00:50:36;;;;;;;15.27;3.80;;;16.00;59.50;;;;;;5032256;28;20410;-76
2023/09/19 00:53:09;;;;;;;9.80;3.10;;;16.00;60.70;;;;;;5032627;28;20379;-76
2023/09/19 00:55:43;;;;;;;14.05;3.22;;;16.00;61.50;;;;;;5035017;28;20534;-76
2023/09/19 00:58:10;;;;;;;11.30;3.30;;;15.90;59.60;;;;;;5033094;28;20445;-76
2023/09/19 01:00:36;;;;;;;9.32;3.13;;;16.00;60.10;;;;;;5032130;28;20926;-76
2023/09/19 01:03:01;;;;;;;16.45;3.38;;;16.00;60.00;;;;;;5032167;28;20387;-76
2023/09/19 01:05:28;;;;;;;14.07;3.47;;;15.90;60.00;;;;;;5032315;28;20452;-76
2023/09/19 01:07:53;;;;;;;14.60;3.65;;;15.90;60.60;;;;;;5031729;28;20399;-76
2023/09/19 01:10:20;;;;;;;15.10;3.50;;;15.80;61.30;;;;;;5042992;28;20398;-78
2023/09/19 01:13:10;;;;;;;15.37;2.90;;;15.80;61.90;;;;;;5044012;28;20421;-79
2023/09/19 01:15:40;;;;;;;16.55;3.67;;;15.80;61.50;;;;;;5029383;28;20420;-79
2023/09/19 01:18:17;;;;;;;18.70;3.45;;;15.80;62.20;;;;;;5043581;28;20753;-77
2023/09/19 01:20:52;;;;;;;16.80;3.17;;;15.80;62.10;;;;;;5031236;28;20399;-76
2023/09/19 01:23:38;;;;;;;15.60;2.90;;;15.80;61.70;;;;;;5040012;28;20419;-77
2023/09/19 01:26:41;;;;;;;14.95;3.22;;;15.80;61.70;;;;;;5042505;28;20411;-75
2023/09/19 01:29:29;;;;;;;9.23;3.33;;;15.90;61.40;;;;;;5042312;28;20394;-77
2023/09/19 01:32:02;;;;;;;12.50;3.63;;;15.80;62.70;;;;;;5044824;28;20413;-76
2023/09/19 01:35:03;;;;;;;16.00;3.90;;;15.80;62.90;;;;;;5045162;28;20759;-78
2023/09/19 01:37:31;;;;;;;17.70;4.13;;;15.70;63.80;;;;;;5044103;28;20390;-77
2023/09/19 01:40:14;;;;;;;13.82;3.67;;;15.70;63.90;;;;;;5043756;28;20457;-77
2023/09/19 01:42:51;;;;;;;10.07;3.40;;;15.70;62.40;;;;;;5045990;28;20863;-78
2023/09/19 01:45:42;;;;;;;9.80;3.15;;;15.70;63.80;;;;;;5047216;28;20386;-79
2023/09/19 01:48:28;;;;;;;15.85;3.67;;;15.70;64.60;;;;;;5044050;28;20398;-77
2023/09/19 01:51:02;;;;;;;12.15;3.35;;;15.70;63.30;;;;;;5015944;28;20415;-78
2023/09/19 01:53:36;;;;;;;18.65;3.10;;;15.70;62.10;;;;;;5044017;28;20375;-77
2023/09/19 01:56:07;;;;;;;15.50;3.50;;;15.80;60.90;;;;;;5041467;28;20384;-79
2023/09/19 01:58:54;;;;;;;19.02;3.42;;;15.80;61.80;;;;;;5044664;28;20375;-77
2023/09/19 02:01:23;;;;;;;13.68;3.70;;;15.70;62.30;;;;;;5043704;28;21086;-78
2023/09/19 02:03:50;;;;;;;17.23;3.60;;;15.60;63.80;;;;;;5026912;28;20415;-78
2023/09/19 02:06:17;;;;;;;13.23;3.90;;;15.60;64.30;;;;;;5043495;28;20387;-77
2023/09/19 02:08:43;;;;;;;18.73;3.75;;;15.60;64.50;;;;;;5042968;28;20398;-77
2023/09/19 02:11:08;;;;;;;12.40;3.30;;;15.70;63.10;;;;;;5023526;28;20411;-79
2023/09/19 02:13:34;;;;;;;15.32;3.20;;;15.70;61.90;;;;;;5045850;28;20383;-76
2023/09/19 02:16:00;;;;;;;16.73;3.55;;;15.60;62.70;;;;;;5045217;28;20383;-78
2023/09/19 02:18:26;;;;;;;12.70;3.70;;;15.70;61.80;;;;;;5044941;28;20383;-79
2023/09/19 02:20:54;;;;;;;12.23;3.55;;;15.70;61.80;;;;;;5031999;28;20394;-75
2023/09/19 02:23:20;;;;;;;13.40;3.65;;;15.60;60.80;;;;;;5051808;28;20421;-77
2023/09/19 02:26:00;;;;;;;17.90;3.75;;;15.70;60.90;;;;;;5050331;28;20394;-79
2023/09/19 02:28:29;;;;;;;14.05;3.65;;;15.70;59.50;;;;;;5044955;28;20451;-78
2023/09/19 02:30:56;;;;;;;15.73;3.67;;;15.70;59.40;;;;;;5031268;28;20406;-77
2023/09/19 02:33:22;;;;;;;10.88;3.33;;;15.60;57.40;;;;;;5051537;28;20375;-77
2023/09/19 02:35:48;;;;;;;18.48;3.47;;;15.60;57.30;;;;;;5055875;28;20388;-77
2023/09/19 02:38:18;;;;;;;16.35;3.50;;;15.60;57.20;;;;;;5055352;28;20376;-76
2023/09/19 02:40:43;;;;;;;14.40;3.78;;;15.60;56.10;;;;;;5055896;28;20378;-76
2023/09/19 02:43:09;;;;;;;14.27;3.50;;;15.50;55.20;;;;;;5030716;28;20987;-78
2023/09/19 02:45:35;;;;;;;11.00;2.97;;;15.50;53.70;;;;;;5044622;28;20379;-77
2023/09/19 02:48:02;;;;;;;14.53;4.00;;;15.60;50.10;;;;;;5031708;28;20387;-77
2023/09/19 02:50:27;;;;;;;13.60;3.90;;;15.60;50.20;;;;;;5053449;28;20398;-78
2023/09/19 02:52:53;;;;;;;13.38;3.65;;;15.50;50.30;;;;;;5041173;28;20928;-77
2023/09/19 02:55:19;;;;;;;16.63;3.53;;;15.60;49.30;;;;;;5047983;28;20414;-77
2023/09/19 02:57:58;;;;;;;12.80;3.60;;;15.60;49.90;;;;;;5035141;28;20904;-77
2023/09/19 03:00:24;;;;;;;12.00;2.85;;;15.50;51.00;;;;;;5021537;28;20455;-76
2023/09/19 03:02:50;;;;;;;16.02;3.15;;;15.50;50.10;;;;;;5039621;28;20429;-76
2023/09/19 03:05:16;;;;;;;15.10;3.80;;;15.50;49.20;;;;;;5042336;28;20383;-76
2023/09/19 03:07:43;;;;;;;17.75;3.95;;;15.40;50.30;;;;;;5028591;28;20892;-77
2023/09/19 03:10:09;;;;;;;15.50;3.10;;;15.40;50.90;;;;;;5046310;28;20430;-77
2023/09/19 03:12:35;;;;;;;10.85;3.22;;;15.40;50.60;;;;;;5048884;28;20395;-77
2023/09/19 03:15:00;;;;;;;20.10;3.80;;;15.50;50.90;;;;;;5049929;28;20394;-77
2023/09/19 03:17:27;;;;;;;12.95;3.03;;;15.50;50.60;;;;;;5035994;28;20387;-78
2023/09/19 03:19:53;;;;;;;11.53;3.27;;;15.40;50.70;;;;;;5046648;28;20406;-79
2023/09/19 03:22:19;;;;;;;14.88;3.30;;;15.40;50.70;;;;;;5037916;28;20371;-76
2023/09/19 03:24:46;;;;;;;11.47;3.20;;;15.40;50.30;;;;;;5054028;28;20388;-77
2023/09/19 03:27:15;;;;;;;10.95;3.40;;;15.40;50.70;;;;;;5026629;28;20463;-78
2023/09/19 03:29:42;;;;;;;18.92;3.72;;;15.30;51.10;;;;;;5042568;28;20397;-79
2023/09/19 03:32:11;;;;;;;21.45;3.90;;;15.30;50.70;;;;;;5044651;28;20717;-77
2023/09/19 03:34:40;;;;;;;12.77;3.17;;;15.30;50.50;;;;;;5025861;28;20390;-76
2023/09/19 03:37:06;;;;;;;14.05;3.80;;;15.30;51.00;;;;;;5021506;28;20389;-78
2023/09/19 03:39:32;;;;;;;14.37;3.23;;;15.20;51.40;;;;;;5038526;28;20384;-78
2023/09/19 03:41:58;;;;;;;13.73;3.58;;;15.20;51.60;;;;;;5039904;28;20398;-77
2023/09/19 03:44:23;;;;;;;11.90;3.50;;;15.20;51.90;;;;;;5049958;28;20391;-76
2023/09/19 03:46:49;;;;;;;12.03;3.27;;;15.20;52.10;;;;;;5039049;28;20418;-77
2023/09/19 03:49:14;;;;;;;16.58;3.40;;;15.20;52.00;;;;;;5038043;28;20398;-76
2023/09/19 03:51:41;;;;;;;15.60;3.63;;;15.20;52.90;;;;;;5052197;28;20421;-78
2023/09/19 03:54:07;;;;;;;13.02;3.35;;;15.20;53.00;;;;;;5048669;28;20521;-78
2023/09/19 03:56:33;;;;;;;9.63;3.17;;;15.20;52.80;;;;;;5045516;28;20387;-78
2023/09/19 03:58:59;;;;;;;17.02;3.53;;;15.20;52.80;;;;;;5044850;28;20419;-78
2023/09/19 04:01:24;;;;;;;15.65;3.40;;;15.20;52.70;;;;;;5044071;28;20387;-78
2023/09/19 04:03:51;;;;;;;19.40;3.70;;;15.20;52.70;;;;;;5044325;28;20452;-78
2023/09/19 04:06:17;;;;;;;22.00;3.90;;;15.30;52.90;;;;;;5042985;28;20391;-78
2023/09/19 04:08:44;;;;;;;16.85;3.80;;;15.30;53.10;;;;;;5042671;28;20379;-77
2023/09/19 04:11:10;;;;;;;14.60;3.13;;;15.20;53.40;;;;;;5025422;28;20509;-78
2023/09/19 04:13:36;;;;;;;16.38;3.75;;;15.20;53.10;;;;;;5043787;28;20392;-77
2023/09/19 04:16:06;;;;;;;13.50;3.60;;;15.30;52.80;;;;;;5042683;28;20406;-78
2023/09/19 04:18:33;;;;;;;14.23;3.93;;;15.20;53.40;;;;;;5028675;28;20383;-78
2023/09/19 04:20:59;;;;;;;16.08;3.70;;;15.20;53.80;;;;;;5045403;28;20398;-79
2023/09/19 04:23:25;;;;;;;16.67;4.10;;;15.30;54.40;;;;;;5044768;28;20706;-78
2023/09/19 04:25:51;;;;;;;17.73;3.83;;;15.30;52.80;;;;;;5047522;28;20444;-79
2023/09/19 04:28:16;;;;;;;17.77;3.63;;;15.30;52.70;;;;;;5029695;28;20413;-78
2023/09/19 04:30:43;;;;;;;19.10;4.23;;;15.30;53.10;;;;;;5049148;28;20892;-76
2023/09/19 04:33:08;;;;;;;17.35;3.80;;;15.20;52.60;;;;;;5054372;28;20413;-76
2023/09/19 04:35:34;;;;;;;17.98;3.90;;;15.30;51.80;;;;;;5048012;28;20423;-76
2023/09/19 04:38:00;;;;;;;17.33;4.00;;;15.20;52.40;;;;;;5047609;28;20756;-78
2023/09/19 04:40:29;;;;;;;21.98;4.82;;;15.20;52.90;;;;;;5042923;28;20379;-77
2023/09/19 04:42:59;;;;;;;14.32;3.60;;;15.20;52.20;;;;;;5024775;28;20395;-78
2023/09/19 04:45:26;;;;;;;15.50;3.70;;;15.20;52.20;;;;;;5042067;28;20397;-78
2023/09/19 04:47:52;;;;;;;15.27;3.83;;;15.20;52.20;;;;;;5023212;28;20927;-76
2023/09/19 04:50:18;;;;;;;13.97;3.80;;;15.20;51.80;;;;;;5042433;28;20426;-78
2023/09/19 04:52:45;;;;;;;16.30;3.72;;;15.10;52.50;;;;;;5040898;28;20898;-79
2023/09/19 04:55:16;;;;;;;14.93;3.30;;;15.10;52.90;;;;;;5044388;28;20510;-79
2023/09/19 04:57:44;;;;;;;19.70;4.23;;;15.20;52.10;;;;;;5045676;28;20390;-76
2023/09/19 05:00:24;;;;;;;17.67;3.10;;;15.30;51.80;;;;;;5042204;28;20398;-76
2023/09/19 05:02:51;;;;;;;18.05;4.00;;;15.20;51.70;;;;;;5041147;28;20382;-76
2023/09/19 05:05:17;;;;;;;17.93;3.73;;;15.20;52.20;;;;;;5046534;28;20831;-75
2023/09/19 05:07:46;;;;;;;18.17;4.30;;;15.20;52.00;;;;;;5049938;28;20387;-76
2023/09/19 05:10:13;;;;;;;17.35;3.58;;;15.20;52.60;;;;;;5054294;28;20449;-77
2023/09/19 05:12:39;;;;;;;18.50;3.50;;;15.30;52.50;;;;;;5052193;28;20419;-78
2023/09/19 05:15:09;;;;;;;15.52;3.90;;;15.20;52.10;;;;;;5034141;28;20406;-76
2023/09/19 05:17:35;;;;;;;14.18;3.97;;;15.20;52.10;;;;;;5053121;28;20375;-77
2023/09/19 05:20:15;;;;;;;16.08;3.70;;;15.20;52.10;;;;;;5051194;28;20395;-77
2023/09/19 05:22:42;;;;;;;11.73;3.30;;;15.20;52.20;;;;;;5043112;28;20379;-77
2023/09/19 05:25:09;;;;;;;15.13;3.60;;;15.20;52.00;;;;;;5042245;28;20415;-77
2023/09/19 05:27:35;;;;;;;15.13;3.40;;;15.20;51.60;;;;;;5041852;28;20469;-78
2023/09/19 05:30:01;;;;;;;18.08;4.05;;;15.40;50.90;;;;;;5041414;28;20424;-77
2023/09/19 05:32:26;;;;;;;13.60;3.50;;;15.50;49.40;;;;;;5037956;28;20464;-79
2023/09/19 05:34:53;;;;;;;16.93;3.90;;;15.50;49.30;;;;;;5041714;28;20442;-78
2023/09/19 05:37:19;;;;;;;13.38;3.85;;;15.60;47.20;;;;;;5044866;28;20379;-78
2023/09/19 05:39:45;;;;;;;13.90;3.80;;;15.70;46.60;;;;;;5030369;28;20692;-79
2023/09/19 05:42:10;;;;;;;19.13;6.80;;;15.80;45.70;;;;;;5046119;28;20391;-77
2023/09/19 05:44:36;;;;;;;15.40;4.00;;;15.80;46.10;;;;;;5049615;28;20387;-77
2023/09/19 05:47:05;;;;;;;13.05;3.78;;;15.90;46.20;;;;;;5049559;28;20417;-78
2023/09/19 05:49:31;;;;;;;17.40;4.17;;;16.00;44.60;;;;;;5048646;28;20464;-78
2023/09/19 05:51:58;;;;;;;18.17;4.00;;;16.10;44.10;;;;;;5049062;28;20474;-78
2023/09/19 05:54:24;;;;;;;15.90;3.75;;;16.20;43.30;;;;;;5049752;28;20423;-78
2023/09/19 05:56:52;;;;;;;22.20;4.20;;;16.00;43.40;;;;;;5048652;28;20391;-77
2023/09/19 05:59:18;;;;;;;17.23;3.42;;;16.20;42.90;;;;;;5051147;28;20445;-77
2023/09/19 06:01:44;;;;;;;17.17;4.23;;;16.10;44.10;;;;;;5048634;28;20508;-77
2023/09/19 06:04:10;;;;;;;15.33;3.57;;;16.20;43.50;;;;;;5051896;28;20387;-76
2023/09/19 06:06:38;;;;;;;14.25;3.33;;;16.30;43.10;;;;;;5056060;28;20403;-77
2023/09/19 06:09:05;;;;;;;15.73;3.40;;;16.30;42.60;;;;;;5050798;28;20383;-77
2023/09/19 06:11:34;;;;;;;14.65;3.65;;;16.40;42.10;;;;;;5036354;28;20522;-77
2023/09/19 06:14:01;;;;;;;16.08;3.90;;;16.40;42.30;;;;;;5056630;28;20383;-76
2023/09/19 06:16:32;;;;;;;18.83;3.90;;;16.40;42.60;;;;;;5050848;28;20379;-78
2023/09/19 06:18:59;;;;;;;15.48;3.45;;;16.40;42.30;;;;;;5056010;28;20382;-77
2023/09/19 06:21:26;;;;;;;15.33;3.80;;;16.50;42.00;;;;;;5037031;28;20443;-77
2023/09/19 06:23:52;;;;;;;15.18;3.70;;;16.50;42.50;;;;;;5044346;28;20379;-77
2023/09/19 06:26:18;;;;;;;16.23;3.55;;;16.50;41.80;;;;;;5048985;28;20391;-79
2023/09/19 06:28:44;;;;;;;25.98;3.95;;;16.40;42.50;;;;;;5028407;28;20395;-78
2023/09/19 06:31:10;;;;;;;18.17;3.77;;;16.50;42.30;;;;;;5047928;28;20754;-79
2023/09/19 06:33:38;;;;;;;15.30;3.53;;;16.50;42.20;;;;;;5032618;28;20395;-80
2023/09/19 06:36:07;;;;;;;16.03;3.60;;;16.60;42.50;;;;;;5046436;28;20466;-78
2023/09/19 06:38:35;;;;;;;16.13;4.00;;;16.60;42.20;;;;;;5029588;28;20403;-78
2023/09/19 06:41:04;;;;;;;16.38;3.70;;;16.60;42.50;;;;;;5048078;28;20398;-79
2023/09/19 06:43:30;;;;;;;11.20;3.53;;;16.70;42.50;;;;;;5030103;28;20395;-78
2023/09/19 06:45:57;;;;;;;16.92;4.35;;;16.70;42.60;;;;;;5047366;28;20391;-78
2023/09/19 06:48:24;;;;;;;17.90;3.77;;;16.90;41.70;;;;;;5033052;28;20510;-77
2023/09/19 06:50:50;;;;;;;15.80;3.63;;;17.00;41.00;;;;;;5055183;28;20483;-76
2023/09/19 06:53:17;;;;;;;15.70;4.23;;;17.00;41.20;;;;;;5037740;28;20406;-76
2023/09/19 06:55:43;;;;;;;18.98;3.80;;;17.00;41.20;;;;;;5053928;28;20409;-76
2023/09/19 06:58:10;;;;;;;15.98;3.30;;;17.00;41.20;;;;;;5051553;28;20394;-76
2023/09/19 07:00:37;;;;;;;19.48;4.60;;;17.00;41.20;;;;;;5047539;28;20418;-77
2023/09/19 07:03:13;;;;;;;15.25;3.97;;;17.30;40.60;;;;;;5047701;28;20442;-78
2023/09/19 07:05:40;;;;;;;19.15;3.58;;;17.10;40.50;;;;;;5055276;28;20390;-76
2023/09/19 07:08:07;;;;;;;15.68;3.40;;;17.20;40.60;;;;;;5055055;28;20387;-76
2023/09/19 07:10:33;;;;;;;14.57;3.20;;;17.20;39.80;;;;;;5052990;28;20415;-75
2023/09/19 07:13:01;;;;;;;18.93;3.87;;;17.20;40.10;;;;;;5037896;28;20897;-78
2023/09/19 07:15:28;;;;;;;21.83;3.60;;;17.20;40.30;;;;;;5036448;28;20470;-78
2023/09/19 07:17:55;;;;;;;21.00;4.20;;;17.40;40.00;;;;;;5033646;28;20442;-77
2023/09/19 07:20:26;;;;;;;16.52;3.17;;;17.50;39.70;;;;;;5055703;28;20383;-78
2023/09/19 07:22:54;;;;;;;17.30;3.55;;;17.50;39.50;;;;;;5038086;28;20395;-77
2023/09/19 07:25:20;;;;;;;17.95;4.00;;;17.50;39.90;;;;;;5049044;28;20387;-78
2023/09/19 07:27:46;;;;;;;11.97;3.27;;;17.60;39.80;;;;;;5046706;28;20479;-78
2023/09/19 07:30:12;;;;;;;14.20;3.27;;;17.60;38.80;;;;;;5047171;28;20390;-78
2023/09/19 07:32:38;;;;;;;10.90;3.10;;;17.70;38.50;;;;;;5032805;28;20410;-78
2023/09/19 07:35:07;;;;;;;12.80;3.43;;;17.80;37.80;;;;;;5052408;28;20450;-78
2023/09/19 07:37:33;;;;;;;11.82;3.58;;;17.70;38.10;;;;;;5045412;28;20387;-78
2023/09/19 07:40:00;;;;;;;19.23;3.83;;;17.80;37.80;;;;;;5047792;28;20391;-76
2023/09/19 07:42:26;;;;;;;14.52;3.35;;;17.90;37.10;;;;;;5055168;28;20407;-77
2023/09/19 07:44:53;;;;;;;19.50;3.65;;;18.00;37.70;;;;;;5044526;28;20391;-77
2023/09/19 07:47:20;;;;;;;18.08;3.90;;;18.00;37.60;;;;;;5028001;28;20387;-77
2023/09/19 07:49:49;;;;;;;15.40;3.77;;;18.20;37.20;;;;;;5043957;28;20851;-79
2023/09/19 07:52:15;;;;;;;16.05;3.35;;;18.10;37.20;;;;;;5047191;28;20887;-78
2023/09/19 07:54:41;;;;;;;14.00;3.73;;;18.20;37.40;;;;;;5047535;28;20395;-78
2023/09/19 07:57:07;;;;;;;17.50;3.13;;;18.20;37.20;;;;;;5045440;28;20392;-78
2023/09/19 07:59:33;;;;;;;20.20;4.00;;;18.20;36.80;;;;;;5045557;28;20383;-79
2023/09/19 08:01:58;;;;;;;13.63;3.50;;;18.10;37.20;;;;;;5024096;28;20405;-77
2023/09/19 08:04:25;;;;;;;18.53;3.83;;;18.10;38.20;;;;;;5042925;28;20395;-79
2023/09/19 08:06:51;;;;;;;16.27;3.40;;;18.10;37.00;;;;;;5025253;28;20409;-78
2023/09/19 08:09:20;;;;;;;13.30;3.20;;;18.20;37.00;;;;;;5046750;28;20419;-77
2023/09/19 08:11:47;;;;;;;15.10;3.42;;;18.30;36.50;;;;;;5024339;28;20419;-77
2023/09/19 08:14:14;;;;;;;14.18;3.60;;;18.40;35.60;;;;;;5043153;28;20387;-77
2023/09/19 08:16:40;;;;;;;16.25;3.38;;;18.50;35.80;;;;;;5025389;28;20470;-78
2023/09/19 08:19:05;;;;;;;13.52;3.50;;;19.00;35.80;;;;;;5046717;28;20395;-78
2023/09/19 08:21:32;;;;;;;18.80;3.67;;;18.50;35.90;;;;;;5044768;28;20395;-78
2023/09/19 08:23:57;;;;;;;17.25;4.05;;;18.60;34.90;;;;;;5046885;28;20374;-78
2023/09/19 08:26:24;;;;;;;15.98;3.30;;;18.60;35.10;;;;;;5047240;28;20438;-77
2023/09/19 08:28:51;;;;;;;18.93;3.73;;;18.60;34.70;;;;;;5046968;28;20796;-79
2023/09/19 08:31:17;;;;;;;14.88;3.55;;;18.60;35.70;;;;;;5028169;28;20411;-80
2023/09/19 08:33:45;;;;;;;16.55;3.60;;;18.50;35.80;;;;;;5047954;28;20382;-79
2023/09/19 08:36:14;;;;;;;18.33;3.28;;;18.60;35.80;;;;;;5048037;28;20391;-77
2023/09/19 08:38:39;;;;;;;15.07;3.72;;;18.70;35.30;;;;;;5043461;28;20384;-78
2023/09/19 08:41:09;;;;;;;15.60;3.97;;;18.90;34.50;;;;;;5020874;28;20448;-78
2023/09/19 08:43:35;;;;;;;16.92;3.88;;;18.90;33.80;;;;;;5041766;28;20664;-77
2023/09/19 08:46:12;;;;;;;13.13;3.33;;;19.00;33.10;;;;;;5019489;28;20729;-78
2023/09/19 08:49:07;;;;;;;14.45;3.45;;;19.00;32.50;;;;;;5043230;28;20465;-77
2023/09/19 08:51:46;;;;;;;18.27;3.70;;;19.00;33.40;;;;;;5040990;28;20419;-77
2023/09/19 08:54:38;;;;;;;15.55;3.67;;;19.00;33.50;;;;;;5041456;28;20383;-78
2023/09/19 08:57:11;;;;;;;17.63;3.40;;;19.10;33.30;;;;;;5022540;28;20386;-77
2023/09/19 08:59:41;;;;;;;22.50;3.80;;;19.20;33.00;;;;;;5047685;28;20749;-77
2023/09/19 09:02:12;;;;;;;13.35;3.40;;;19.40;32.50;;;;;;5031719;28;20394;-77
2023/09/19 09:04:40;;;;;;;13.05;3.00;;;19.50;31.70;;;;;;5031452;28;20403;-76
2023/09/19 09:07:12;;;;;;;22.20;3.50;;;19.50;31.10;;;;;;5053934;28;20466;-77
2023/09/19 09:09:42;;;;;;;12.37;3.20;;;19.40;31.20;;;;;;5054611;28;20421;-77
2023/09/19 09:12:13;;;;;;;21.60;3.53;;;19.40;31.30;;;;;;5032856;28;20422;-78
2023/09/19 09:14:39;;;;;;;15.38;2.97;;;19.40;30.50;;;;;;5047634;28;20483;-76
2023/09/19 09:17:05;;;;;;;12.32;3.35;;;19.30;30.40;;;;;;5054451;28;20402;-77
2023/09/19 09:19:31;;;;;;;15.77;3.90;;;19.30;31.10;;;;;;5049125;28;20441;-79
2023/09/19 09:22:08;;;;;;;17.77;3.45;;;19.50;30.90;;;;;;5025114;28;20391;-77
2023/09/19 09:24:33;;;;;;;18.92;3.50;;;19.70;30.00;;;;;;5027566;28;20721;-78
2023/09/19 09:27:00;;;;;;;16.52;3.00;;;19.70;29.80;;;;;;5047221;28;20386;-79
2023/09/19 09:29:42;;;;;;;13.40;3.10;;;19.80;29.50;;;;;;5043327;28;20474;-78
2023/09/19 09:32:24;;;;;;;13.18;2.78;;;19.80;28.40;;;;;;5041389;28;20411;-78
2023/09/19 09:34:58;;;;;;;13.35;3.03;;;19.80;28.60;;;;;;5024015;28;20399;-77
2023/09/19 09:37:26;;;;;;;14.75;3.60;;;19.80;28.80;;;;;;5041225;28;20405;-78
2023/09/19 09:42:41;;;;;;;17.13;2.97;;;20.30;28.30;;;;;;5055780;28;20378;-77
2023/09/19 09:48:03;;;;;;;12.18;3.40;;;20.60;27.60;;;;;;5058778;28;20387;-77
2023/09/19 09:50:39;;;;;;;14.02;2.95;;;21.00;26.40;;;;;;5053430;28;20404;-78
2023/09/19 09:53:19;;;;;;;17.88;3.70;;;21.00;25.80;;;;;;5050266;28;20687;-78
2023/09/19 09:56:02;;;;;;;10.65;3.20;;;20.80;26.00;;;;;;5048222;28;20520;-78
2023/09/19 09:58:32;;;;;;;12.50;3.47;;;20.50;25.70;;;;;;5053274;28;20402;-78
2023/09/19 10:00:59;;;;;;;14.65;4.60;;;20.50;26.70;;;;;;5055847;28;20392;-77
2023/09/19 10:03:44;;;;;;;15.60;3.50;;;20.50;26.70;;;;;;5060400;28;20425;-78
2023/09/19 10:09:05;;;;;;;16.17;3.10;;;20.10;26.80;;;;;;5052557;28;20438;-78
2023/09/19 10:11:31;;;;;;;16.30;3.50;;;20.00;26.90;;;;;;5048713;28;20462;-78
2023/09/19 10:14:01;;;;;;;12.33;3.00;;;20.00;26.60;;;;;;5030784;28;20888;-78
2023/09/19 10:16:31;;;;;;;15.93;3.13;;;20.00;26.60;;;;;;5049827;28;20389;-78
2023/09/19 10:19:01;;;;;;;18.08;3.65;;;19.90;26.00;;;;;;5049846;28;20434;-79
2023/09/19 10:21:30;;;;;;;12.82;3.20;;;19.90;26.90;;;;;;5037740;28;20875;-77
2023/09/19 10:23:59;;;;;;;13.65;3.40;;;19.80;26.80;;;;;;5053312;28;20450;-78
2023/09/19 10:26:30;;;;;;;12.85;3.05;;;19.80;27.50;;;;;;5033103;28;20407;-77
2023/09/19 10:28:59;;;;;;;12.65;3.55;;;19.80;27.80;;;;;;5034044;28;20399;-79
2023/09/19 10:31:28;;;;;;;13.63;3.67;;;20.00;27.00;;;;;;5050049;28;20410;-78
2023/09/19 10:33:57;;;;;;;9.93;2.90;;;20.10;27.10;;;;;;5051128;28;20934;-79
2023/09/19 10:36:27;;;;;;;15.60;3.40;;;20.20;26.20;;;;;;5051110;28;20414;-77
2023/09/19 10:38:57;;;;;;;10.52;2.97;;;20.20;25.60;;;;;;5048275;28;20451;-78
2023/09/19 10:41:24;;;;;;;17.07;3.50;;;20.50;25.70;;;;;;5029940;28;20487;-77
2023/09/19 10:43:54;;;;;;;11.15;3.50;;;20.60;25.10;;;;;;5049092;28;20476;-78
2023/09/19 10:46:19;;;;;;;13.82;3.15;;;20.50;25.30;;;;;;5053559;28;20393;-75
2023/09/19 10:48:48;;;;;;;12.63;3.30;;;20.60;25.30;;;;;;5059161;28;20506;-77
2023/09/19 10:51:24;;;;;;;10.93;2.83;;;20.70;24.50;;;;;;5051979;28;20450;-79
2023/09/19 10:54:28;;;;;;;12.52;4.07;;;20.80;24.20;;;;;;5053763;28;20406;-77
2023/09/19 10:56:54;;;;;;;12.93;3.17;;;20.80;24.20;;;;;;5054402;28;20433;-77
2023/09/19 10:59:21;;;;;;;10.57;3.03;;;21.10;23.90;;;;;;5034218;28;20855;-77
2023/09/19 11:01:51;;;;;;;14.73;3.08;;;21.30;23.40;;;;;;5048588;28;20406;-76
2023/09/19 11:04:38;;;;;;;13.75;3.10;;;21.30;23.60;;;;;;5048984;28;20398;-76
2023/09/19 11:07:12;;;;;;;19.00;3.35;;;21.40;23.20;;;;;;5049406;28;20379;-76
2023/09/19 11:09:53;;;;;;;9.35;3.10;;;21.50;22.10;;;;;;5049499;28;20383;-77
2023/09/19 11:12:31;;;;;;;14.90;3.40;;;21.40;22.50;;;;;;5051598;28;20399;-77
2023/09/19 11:14:58;;;;;;;13.43;3.50;;;21.20;23.10;;;;;;5052122;28;20379;-77
2023/09/19 11:17:34;;;;;;;12.95;3.30;;;21.00;23.50;;;;;;5052004;28;20406;-77
2023/09/19 11:22:52;;;;;;;10.35;3.53;;;21.30;22.80;;;;;;5051567;28;20383;-77
2023/09/19 11:25:31;;;;;;;9.38;2.65;;;21.10;23.40;;;;;;5033784;28;20386;-77
2023/09/19 11:28:08;;;;;;;14.10;3.28;;;20.70;23.80;;;;;;5045334;28;20422;-77
2023/09/19 11:30:35;;;;;;;12.65;3.03;;;20.60;24.20;;;;;;5050775;28;20494;-78
2023/09/19 11:33:32;;;;;;;11.00;3.08;;;20.70;23.90;;;;;;5045926;28;20398;-77
2023/09/19 11:36:14;;;;;;;11.90;3.08;;;21.00;22.20;;;;;;5034732;28;20379;-76
2023/09/19 11:38:49;;;;;;;15.70;3.40;;;21.30;22.30;;;;;;5033375;28;20406;-76
2023/09/19 11:41:21;;;;;;;10.55;3.08;;;21.20;20.90;;;;;;5023265;28;20753;-74
2023/09/19 11:43:51;;;;;;;10.95;3.00;;;21.10;21.50;;;;;;5019905;28;20409;-75
2023/09/19 11:46:21;;;;;;;11.88;3.10;;;21.00;20.90;;;;;;5033392;28;20740;-74
2023/09/19 11:48:49;;;;;;;9.10;2.70;;;21.00;21.70;;;;;;5020914;28;20388;-74
2023/09/19 11:51:39;;;;;;;11.77;3.15;;;21.00;22.40;;;;;;5014839;28;20840;-75
2023/09/19 11:54:15;;;;;;;15.23;3.30;;;21.00;22.30;;;;;;5002265;28;20800;-76
2023/09/19 11:56:42;;;;;;;12.15;3.22;;;21.30;21.80;;;;;;5040153;28;20444;-76
2023/09/19 11:59:08;;;;;;;13.03;3.17;;;21.20;20.90;;;;;;5042126;28;20387;-75
2023/09/19 12:01:34;;;;;;;9.70;2.70;;;21.10;20.50;;;;;;5044308;28;20387;-75
2023/09/19 12:04:04;;;;;;;18.20;3.20;;;21.00;19.90;;;;;;5045197;28;20406;-75
2023/09/19 12:06:32;;;;;;;7.82;2.40;;;20.90;20.00;;;;;;5045643;28;20434;-75
2023/09/19 12:08:59;;;;;;;12.23;2.80;;;20.90;20.20;;;;;;5044722;28;20395;-75
2023/09/19 12:11:33;;;;;;;13.90;2.90;;;20.80;20.20;;;;;;5045406;28;20437;-75
2023/09/19 12:14:00;;;;;;;13.23;3.30;;;20.80;21.50;;;;;;5044095;28;20403;-75
2023/09/19 12:16:30;;;;;;;9.55;2.75;;;20.90;20.70;;;;;;5043560;28;20934;-75
2023/09/19 12:18:57;;;;;;;10.40;2.88;;;20.80;20.20;;;;;;5042630;28;20395;-75
2023/09/19 12:21:32;;;;;;;7.03;2.40;;;20.80;19.70;;;;;;5043942;28;20394;-74
2023/09/19 12:24:05;;;;;;;11.85;3.25;;;20.80;19.90;;;;;;5040537;28;20464;-74
2023/09/19 12:26:43;;;;;;;9.60;2.80;;;20.80;20.40;;;;;;5036301;28;20422;-76
2023/09/19 12:29:18;;;;;;;7.17;2.70;;;20.80;20.90;;;;;;5032853;28;20431;-76
2023/09/19 12:32:03;;;;;;;13.95;2.90;;;20.90;19.80;;;;;;5031814;28;20421;-75
2023/09/19 12:34:34;;;;;;;11.55;2.65;;;20.90;19.40;;;;;;5032532;28;20868;-75
2023/09/19 12:37:12;;;;;;;10.10;3.20;;;21.00;19.40;;;;;;5015224;28;20395;-74
2023/09/19 12:39:43;;;;;;;10.65;2.60;;;21.10;19.70;;;;;;5033526;28;20380;-75
2023/09/19 12:42:10;;;;;;;11.23;2.80;;;21.10;19.40;;;;;;5033130;28;20399;-75
2023/09/19 12:44:44;;;;;;;8.82;2.58;;;21.10;20.50;;;;;;5034220;28;20390;-76
2023/09/19 12:47:11;;;;;;;11.07;2.60;;;21.20;19.90;;;;;;5033564;28;20853;-75
2023/09/19 12:50:25;;;;;;;6.20;2.60;;;21.30;19.20;;;;;;5032803;28;20698;-75
2023/09/19 12:52:51;;;;;;;8.85;2.65;;;21.30;18.70;;;;;;5034383;28;20422;-76
2023/09/19 12:55:22;;;;;;;5.75;2.30;;;21.40;18.70;;;;;;5034180;28;20411;-75
2023/09/19 12:57:58;;;;;;;11.43;2.53;;;21.50;18.20;;;;;;5035582;28;20379;-76
2023/09/19 13:00:44;;;;;;;8.93;2.20;;;21.60;18.90;;;;;;5033130;28;20414;-76
2023/09/19 13:03:15;;;;;;;7.10;2.65;;;22.00;18.60;;;;;;5036753;28;20872;-76